Time;durP1;ratioP1;P1;durP2;ratioP2;P2;SDS_P1;SDS_P2;PMS_P1;PMS_P2;Temp;Humidity;BMP_temperature;BMP_pressure;BME280_temperature;BME280_humidity;BME280_pressure;Samples;Min_cycle;Max_cycle;Signal;HPM_P1;HPM_P2
2023/09/15 00:03:15;;;;;;;5.97;3.90;;;;;;;-145.68;100.00;74911.19;10450744;28;20199;-74
2023/09/15 00:08:16;;;;;;;5.17;3.63;;;;;;;-145.68;100.00;74909.19;10424045;28;20699;-75
2023/09/15 00:13:17;;;;;;;7.17;3.90;;;;;;;-145.68;100.00;74915.19;10426638;28;20190;-75
2023/09/15 00:18:20;;;;;;;4.90;3.37;;;;;;;-145.68;100.00;74913.19;10433034;28;20652;-75
2023/09/15 00:23:21;;;;;;;9.30;4.00;;;;;;;-145.68;100.00;74917.19;10451202;28;20205;-74
2023/09/15 00:28:22;;;;;;;5.60;3.80;;;;;;;-145.68;100.00;74919.19;10445020;28;20344;-74
2023/09/15 00:33:22;;;;;;;6.37;4.20;;;;;;;-145.68;100.00;74917.19;10426441;28;20655;-74
2023/09/15 00:38:22;;;;;;;6.57;3.90;;;;;;;-145.68;100.00;74919.19;10416761;28;20188;-75
2023/09/15 00:43:23;;;;;;;4.27;3.67;;;;;;;-145.68;100.00;74911.19;10432414;28;20206;-75
2023/09/15 00:48:23;;;;;;;8.57;3.33;;;;;;;-145.68;100.00;74915.19;10379463;28;1296636;-75
2023/09/15 00:53:24;;;;;;;5.83;3.70;;;;;;;-145.68;100.00;74915.19;10427712;28;20214;-75
2023/09/15 00:58:24;;;;;;;6.03;4.30;;;;;;;-145.68;100.00;74915.19;10444103;28;20202;-75
2023/09/15 01:03:30;;;;;;;6.03;4.10;;;;;;;-145.68;100.00;74919.19;10432091;28;20199;-75
2023/09/15 01:08:30;;;;;;;8.57;3.53;;;;;;;-145.68;100.00;74921.19;10443542;28;20211;-75
2023/09/15 01:13:32;;;;;;;6.20;3.57;;;;;;;-145.68;100.00;74917.19;10410247;28;20198;-75
2023/09/15 01:18:38;;;;;;;4.87;3.63;;;;;;;-145.68;100.00;74917.19;10409801;28;20322;-75
2023/09/15 01:24:00;;;;;;;5.83;3.73;;;;;;;-145.68;100.00;74913.19;10436678;28;20235;-75
2023/09/15 01:29:28;;;;;;;7.90;3.50;;;;;;;-145.68;100.00;74909.19;10450987;28;20215;-75
2023/09/15 01:34:29;;;;;;;6.83;3.27;;;;;;;-145.68;100.00;74907.19;10448474;28;20270;-75
2023/09/15 01:39:30;;;;;;;3.93;3.20;;;;;;;-145.68;100.00;74905.19;10458095;28;20710;-75
2023/09/15 01:44:31;;;;;;;3.60;2.90;;;;;;;-145.68;100.00;74905.19;10452274;28;20334;-74
2023/09/15 01:49:31;;;;;;;4.33;3.17;;;;;;;-145.68;100.00;74899.19;10450526;28;20228;-74
2023/09/15 01:54:32;;;;;;;8.13;3.80;;;;;;;-145.68;100.00;74903.19;10438708;28;20187;-75
2023/09/15 01:59:32;;;;;;;7.60;3.53;;;;;;;-145.68;100.00;74895.19;10458288;28;20245;-75
2023/09/15 02:04:33;;;;;;;4.80;3.27;;;;;;;-145.68;100.00;74905.19;10432959;28;20208;-75
2023/09/15 02:09:33;;;;;;;5.87;3.80;;;;;;;-145.68;100.00;74905.19;10415825;28;20195;-75
2023/09/15 02:14:34;;;;;;;5.77;4.07;;;;;;;-145.68;100.00;74901.19;10450207;28;20570;-75
2023/09/15 02:19:35;;;;;;;5.20;3.20;;;;;;;-145.68;100.00;74897.19;10456989;28;20268;-75
2023/09/15 02:24:35;;;;;;;8.83;3.77;;;;;;;-145.68;100.00;74895.19;10449539;28;20218;-75
2023/09/15 02:29:35;;;;;;;8.83;2.90;;;;;;;-145.68;100.00;74903.19;10453322;28;20195;-74
2023/09/15 02:34:36;;;;;;;6.00;3.70;;;;;;;-145.68;100.00;74907.19;10430036;28;20190;-74
2023/09/15 02:39:37;;;;;;;4.37;3.30;;;;;;;-145.68;100.00;74915.19;10456536;28;20737;-75
2023/09/15 02:44:38;;;;;;;5.50;3.60;;;;;;;-145.68;100.00;74907.19;10449926;28;20274;-75
2023/09/15 02:49:38;;;;;;;6.00;3.23;;;;;;;-145.68;100.00;74907.19;10448841;28;20238;-75
2023/09/15 02:54:39;;;;;;;6.13;4.13;;;;;;;-145.68;100.00;74909.19;10452465;28;20195;-75
2023/09/15 02:59:39;;;;;;;5.10;4.03;;;;;;;-145.68;100.00;74911.19;10433962;28;20195;-75
2023/09/15 03:04:40;;;;;;;6.23;3.63;;;;;;;-145.68;100.00;74911.19;10431749;28;20569;-75
2023/09/15 03:09:43;;;;;;;6.43;4.00;;;;;;;-145.68;100.00;74907.19;10425167;28;20196;-75
2023/09/15 03:14:44;;;;;;;7.83;4.23;;;;;;;-145.68;100.00;74917.19;10421983;28;20180;-75
2023/09/15 03:19:45;;;;;;;5.87;4.10;;;;;;;-145.68;100.00;74915.19;10428633;28;20183;-75
2023/09/15 03:24:45;;;;;;;5.73;4.63;;;;;;;-145.68;100.00;74925.19;10428395;28;20208;-75
2023/09/15 03:29:46;;;;;;;4.73;3.80;;;;;;;-145.68;100.00;74917.19;10449657;28;20188;-75
2023/09/15 03:34:47;;;;;;;6.17;4.57;;;;;;;-145.68;100.00;74935.19;10435475;28;20440;-75
2023/09/15 03:39:48;;;;;;;8.87;5.10;;;;;;;-145.68;100.00;74935.19;10424042;28;20200;-75
2023/09/15 03:44:49;;;;;;;7.37;5.20;;;;;;;-145.68;100.00;74919.19;10428740;28;20305;-75
2023/09/15 03:49:49;;;;;;;8.60;5.07;;;;;;;-145.68;100.00;74935.19;10426879;28;20237;-75
2023/09/15 03:54:50;;;;;;;7.03;4.80;;;;;;;-145.68;100.00;74935.19;10433778;28;20375;-75
2023/09/15 03:59:50;;;;;;;8.17;4.80;;;;;;;-145.68;100.00;74949.19;10445109;28;20227;-75
2023/09/15 04:04:51;;;;;;;9.43;4.60;;;;;;;-145.68;100.00;74937.19;10426083;28;20269;-75
2023/09/15 04:09:52;;;;;;;7.17;4.83;;;;;;;-145.68;100.00;74943.19;10447548;28;20200;-75
2023/09/15 04:14:52;;;;;;;5.10;3.70;;;;;;;-145.68;100.00;74945.19;10434489;28;20199;-75
2023/09/15 04:19:53;;;;;;;6.20;5.07;;;;;;;-145.68;100.00;74945.19;10445170;28;20195;-75
2023/09/15 04:24:53;;;;;;;7.00;4.73;;;;;;;-145.68;100.00;74955.19;10428330;28;20211;-75
2023/09/15 04:29:55;;;;;;;6.13;4.87;;;;;;;-145.68;100.00;74967.19;10432437;28;20713;-75
2023/09/15 04:35:00;;;;;;;6.40;4.87;;;;;;;-145.68;100.00;74955.19;10431607;28;20223;-74
2023/09/15 04:40:02;;;;;;;6.57;5.27;;;;;;;-145.68;100.00;74961.19;10427358;28;20203;-74
2023/09/15 04:45:03;;;;;;;13.70;5.60;;;;;;;-145.68;100.00;74959.19;10426821;28;20228;-74
2023/09/15 04:50:06;;;;;;;8.00;5.33;;;;;;;-145.68;100.00;74943.19;10408133;28;20290;-74
2023/09/15 04:55:06;;;;;;;6.90;5.27;;;;;;;-145.68;100.00;74959.19;10403221;28;20250;-75
2023/09/15 05:00:12;;;;;;;8.40;5.00;;;;;;;-145.68;100.00;74955.19;10393991;28;20981;-75
2023/09/15 05:05:13;;;;;;;8.10;5.77;;;;;;;-145.68;100.00;74961.19;10410722;28;20216;-75
2023/09/15 05:10:14;;;;;;;13.20;6.10;;;;;;;-145.68;100.00;74981.19;10415758;28;20197;-75
2023/09/15 05:15:15;;;;;;;6.20;5.07;;;;;;;-145.68;100.00;74987.16;10411661;28;20180;-74
2023/09/15 05:20:15;;;;;;;8.83;5.80;;;;;;;-145.68;100.00;74989.16;10411611;28;20188;-74
2023/09/15 05:25:16;;;;;;;11.47;6.80;;;;;;;-145.68;100.00;74983.19;10410358;28;20584;-75
2023/09/15 05:30:17;;;;;;;8.53;5.80;;;;;;;-145.68;100.00;74973.19;10416574;28;20185;-74
2023/09/15 05:35:18;;;;;;;10.93;5.33;;;;;;;-145.68;100.00;74965.19;10408563;28;20203;-75
2023/09/15 05:40:18;;;;;;;6.50;5.83;;;;;;;-145.68;100.00;74961.19;10410684;28;20204;-75
2023/09/15 05:45:19;;;;;;;13.73;6.97;;;;;;;-145.68;100.00;74943.19;10413334;28;20251;-74
2023/09/15 05:50:19;;;;;;;10.10;7.53;;;;;;;-145.68;100.00;74905.19;10450974;28;20238;-75
2023/09/15 05:55:20;;;;;;;10.47;6.50;;;;;;;-145.68;100.00;74869.19;10433253;28;20652;-75
2023/09/15 06:00:20;;;;;;;13.80;6.70;;;;;;;-145.68;100.00;74757.22;10446392;28;20644;-74
2023/09/15 06:05:24;;;;;;;7.07;5.03;;;;;;;-145.68;100.00;74655.25;10455483;28;20273;-75
2023/09/15 06:10:25;;;;;;;12.27;5.37;;;;;;;-145.68;100.00;74573.28;10435427;28;20210;-75
2023/09/15 06:15:25;;;;;;;5.57;4.17;;;;;;;-145.68;100.00;74469.31;10455124;28;20188;-75
2023/09/15 06:20:26;;;;;;;6.47;4.30;;;;;;;-145.68;100.00;74403.34;10450616;28;20265;-75
2023/09/15 06:25:27;;;;;;;5.57;4.83;;;;;;;-145.68;100.00;74407.34;10439503;28;20212;-75
2023/09/15 06:30:28;;;;;;;7.13;4.30;;;;;;;-145.68;100.00;74317.38;10426899;28;20199;-75
2023/09/15 06:35:29;;;;;;;7.68;4.10;;;;;;;-145.68;100.00;74215.44;10451243;28;20200;-74
2023/09/15 06:40:29;;;;;;;6.32;3.95;;;;;;;-145.68;100.00;74131.47;10447292;28;20619;-75
2023/09/15 06:45:31;;;;;;;5.13;3.78;;;;;;;-145.68;92.24;73997.53;10413184;28;20224;-75
2023/09/15 06:50:31;;;;;;;5.28;3.30;;;;;;;-145.68;84.39;73935.56;10432003;28;20364;-75
2023/09/15 06:55:33;;;;;;;4.35;3.67;;;;;;;-145.68;82.64;73963.53;10426150;28;20252;-76
2023/09/15 07:00:33;;;;;;;7.35;3.80;;;;;;;-145.68;85.87;73985.53;10447880;28;20586;-75
2023/09/15 07:05:33;;;;;;;7.93;4.18;;;;;;;-145.68;89.96;74011.53;10445406;28;20230;-75
2023/09/15 07:10:34;;;;;;;8.70;3.60;;;;;;;-145.68;83.65;73799.63;10431887;28;20184;-76
2023/09/15 07:15:36;;;;;;;7.80;3.72;;;;;;;-145.68;79.59;73735.66;10457069;28;20192;-75
2023/09/15 07:20:36;;;;;;;5.70;3.50;;;;;;;-145.68;80.70;73725.66;10465729;28;20195;-75
2023/09/15 07:25:36;;;;;;;7.70;3.78;;;;;;;-145.68;72.76;73619.72;10466342;28;20211;-75
2023/09/15 07:30:37;;;;;;;6.70;3.75;;;;;;;-145.68;70.90;73619.72;10446470;28;20637;-75
2023/09/15 07:35:37;;;;;;;6.60;3.40;;;;;;;-145.68;68.71;73587.75;10461671;28;20191;-76
2023/09/15 07:40:38;;;;;;;3.13;2.83;;;;;;;-145.68;66.95;73613.72;10477794;28;20195;-74
2023/09/15 07:45:38;;;;;;;4.50;3.35;;;;;;;-145.68;67.49;73615.72;10464803;28;20282;-75
2023/09/15 07:50:38;;;;;;;4.68;2.92;;;;;;;-145.68;65.95;73581.75;10455312;28;20231;-76
2023/09/15 07:55:39;;;;;;;7.20;3.47;;;;;;;-145.68;65.21;73535.78;10461306;28;20251;-75
2023/09/15 08:00:39;;;;;;;4.10;3.00;;;;;;;-145.68;64.77;73541.78;10460452;28;20204;-74
2023/09/15 08:05:40;;;;;;;5.45;3.17;;;;;;;-145.68;64.55;73551.75;10448922;28;20223;-75
2023/09/15 08:10:40;;;;;;;3.92;3.03;;;;;;;-145.68;62.04;73485.81;10446681;28;20668;-75
2023/09/15 08:15:41;;;;;;;4.68;3.10;;;;;;;-145.68;60.78;73431.84;10464142;28;20659;-74
2023/09/15 08:20:41;;;;;;;5.30;3.35;;;;;;;-145.68;59.45;73405.84;10456141;28;20191;-74
2023/09/15 08:25:42;;;;;;;3.35;2.83;;;;;;;-145.68;60.49;73441.81;10465254;28;20657;-74
2023/09/15 08:30:46;;;;;;;3.85;3.25;;;;;;;-145.68;58.76;73431.84;10453455;28;20604;-74
2023/09/15 08:35:46;;;;;;;7.50;4.07;;;;;;;-145.68;59.48;73437.84;10449103;28;20184;-74
2023/09/15 08:40:51;;;;;;;5.78;3.70;;;;;;;-145.68;60.42;73439.84;10449169;28;20656;-74
2023/09/15 08:45:52;;;;;;;7.93;3.20;;;;;;;-145.68;61.14;73509.78;10424989;28;20242;-75
2023/09/15 08:50:53;;;;;;;5.85;3.47;;;;;;;-145.68;61.20;73451.81;10449601;28;20235;-74
2023/09/15 08:55:54;;;;;;;4.03;3.28;;;;;;;-145.68;60.64;73477.81;10449568;28;20233;-75
2023/09/15 09:00:54;;;;;;;4.90;3.17;;;;;;;-145.68;60.68;73515.78;10445056;28;20256;-75
2023/09/15 09:05:55;;;;;;;8.30;3.85;;;;;;;-145.68;59.64;73437.84;10443230;28;20599;-75
2023/09/15 09:10:56;;;;;;;5.40;3.40;;;;;;;-145.68;61.06;73505.78;10452706;28;20222;-75
2023/09/15 09:15:56;;;;;;;6.75;3.95;;;;;;;-145.68;60.96;73539.78;10453295;28;20199;-75
2023/09/15 09:20:57;;;;;;;7.38;2.95;;;;;;;-145.68;60.20;73429.84;10447468;28;20191;-75
2023/09/15 09:25:59;;;;;;;7.63;3.15;;;;;;;-145.68;56.14;73259.94;10440989;28;20220;-75
2023/09/15 09:31:00;;;;;;;5.25;3.47;;;;;;;-145.68;56.28;73389.88;10463293;28;20207;-75
2023/09/15 09:36:12;;;;;;;5.22;3.50;;;;;;;-145.68;55.96;73311.91;10449191;28;20211;-75
2023/09/15 09:41:14;;;;;;;5.32;3.00;;;;;;;-145.68;51.98;73082.06;10456468;28;20539;-75
2023/09/15 09:46:21;;;;;;;4.63;3.10;;;;;;;-145.68;51.20;73170.00;10440826;28;20219;-74
2023/09/15 09:58:04;;;;;;;5.07;3.25;;;;;;;-145.68;51.67;73196.00;10469139;28;20196;-75
2023/09/15 10:03:04;;;;;;;4.43;3.03;;;;;;;-145.68;53.00;73225.97;10485060;28;20816;-75
2023/09/15 10:08:05;;;;;;;3.78;2.83;;;;;;;-145.68;51.80;73140.03;10444527;28;20230;-75
2023/09/15 10:13:05;;;;;;;5.15;3.00;;;;;;;-145.68;50.17;73080.06;10470312;28;20187;-75
2023/09/15 10:18:07;;;;;;;3.78;2.80;;;;;;;-145.68;51.32;73138.03;10481003;28;20226;-75
2023/09/15 10:23:07;;;;;;;3.50;2.80;;;;;;;-145.68;52.14;73198.00;10468024;28;20876;-74
2023/09/15 10:28:10;;;;;;;3.38;2.38;;;;;;;-145.68;50.78;73088.06;10444260;28;20223;-75
2023/09/15 10:33:11;;;;;;;3.20;2.90;;;;;;;-145.68;49.09;72930.19;10456643;28;20195;-75
2023/09/15 10:38:11;;;;;;;3.30;2.47;;;;;;;-145.68;46.06;72872.22;10463828;28;20330;-75
2023/09/15 10:43:11;;;;;;;3.65;2.35;;;;;;;-145.68;45.45;72752.31;10449158;28;20223;-75
2023/09/15 10:48:12;;;;;;;5.28;2.85;;;;;;;-145.68;46.64;72950.16;10434806;28;20730;-74
2023/09/15 10:53:14;;;;;;;6.32;2.60;;;;;;;-145.68;45.53;72870.22;10413530;28;20191;-74
2023/09/15 10:58:14;;;;;;;4.20;2.80;;;;;;;-145.68;45.33;72858.22;10406763;28;20193;-74
2023/09/15 11:03:15;;;;;;;3.78;2.70;;;;;;;-145.68;44.75;72812.28;10410617;28;20204;-75
2023/09/15 11:08:16;;;;;;;4.35;2.58;;;;;;;-145.68;46.83;73020.13;10421889;28;20208;-75
2023/09/15 11:13:16;;;;;;;4.05;2.42;;;;;;;-145.68;49.83;73203.97;10429175;28;20189;-75
2023/09/15 11:18:17;;;;;;;5.95;2.58;;;;;;;-145.68;50.44;73215.97;10432269;28;20523;-76
2023/09/15 11:23:18;;;;;;;3.00;2.50;;;;;;;-145.68;46.94;73032.09;10420191;28;20192;-75
2023/09/15 11:28:18;;;;;;;5.38;2.40;;;;;;;-145.68;45.85;72948.16;10404984;28;20220;-76
2023/09/15 11:33:19;;;;;;;2.70;2.17;;;;;;;-145.68;45.65;72972.16;10405898;28;20193;-74
2023/09/15 11:38:19;;;;;;;5.20;2.53;;;;;;;-145.68;45.14;73016.13;10404498;28;20197;-75
2023/09/15 11:43:21;;;;;;;2.65;2.40;;;;;;;-145.68;46.59;73024.13;10405054;28;20668;-75
2023/09/15 11:48:22;;;;;;;4.30;2.47;;;;;;;-145.68;45.25;73038.09;10423625;28;20227;-75
2023/09/15 11:53:26;;;;;;;3.10;2.53;;;;;;;-145.68;45.68;73032.09;10446816;28;20671;-75
2023/09/15 11:58:26;;;;;;;4.47;2.30;;;;;;;-145.68;45.29;72874.22;10455407;28;20175;-76
2023/09/15 12:03:29;;;;;;;3.83;2.35;;;;;;;-145.68;43.22;72682.38;10458068;28;20218;-76
2023/09/15 12:08:29;;;;;;;3.22;2.78;;;;;;;-145.68;42.83;72784.28;10475986;28;20264;-76
2023/09/15 12:13:35;;;;;;;4.97;2.85;;;;;;;-145.68;43.22;72872.22;10442846;28;20664;-76
2023/09/15 12:18:36;;;;;;;3.50;2.60;;;;;;;-145.68;45.83;73030.09;10423936;28;20250;-76
2023/09/15 12:24:28;;;;;;;11.88;3.00;;;;;;;-145.68;44.72;72768.31;10463507;28;20195;-74
2023/09/15 12:29:28;;;;;;;3.03;2.35;;;;;;;-145.68;41.70;72672.38;10447840;28;20203;-75
2023/09/15 12:34:29;;;;;;;3.78;3.30;;;;;;;-145.68;40.25;72536.50;10443207;28;20188;-75
2023/09/15 12:39:29;;;;;;;4.22;2.92;;;;;;;-145.68;43.31;72890.22;10427018;28;20200;-76
2023/09/15 12:44:30;;;;;;;3.25;2.47;;;;;;;-145.68;45.02;73002.13;10448520;28;20686;-75
2023/09/15 12:49:30;;;;;;;2.88;2.53;;;;;;;-145.68;43.35;72804.28;10443640;28;20696;-75
2023/09/15 12:54:31;;;;;;;6.57;2.67;;;;;;;-145.68;44.89;72888.22;10444094;28;20208;-73
2023/09/15 12:59:31;;;;;;;4.85;2.30;;;;;;;-145.68;42.84;72724.34;10424999;28;20218;-75
2023/09/15 13:04:32;;;;;;;10.30;2.55;;;;;;;-145.68;40.26;72498.53;10448481;28;20196;-76
2023/09/15 13:09:32;;;;;;;2.42;2.22;;;;;;;-145.68;40.64;72568.47;10444190;28;20207;-76
2023/09/15 13:14:34;;;;;;;4.00;2.13;;;;;;;-145.68;39.73;72520.50;10443163;28;20223;-75
2023/09/15 13:19:34;;;;;;;5.72;2.22;;;;;;;-145.68;39.50;72422.59;10449114;28;20230;-76
2023/09/15 13:24:34;;;;;;;4.97;2.00;;;;;;;-145.68;38.21;72326.69;10456201;28;20190;-75
2023/09/15 13:29:35;;;;;;;3.25;2.35;;;;;;;-145.68;39.08;72560.47;10452265;28;20271;-75
2023/09/15 13:34:36;;;;;;;3.42;2.10;;;;;;;-145.68;39.84;72596.44;10459086;28;20192;-76
2023/09/15 13:39:38;;;;;;;3.65;2.13;;;;;;;-145.68;40.39;72658.38;10451679;28;20704;-75
2023/09/15 13:44:39;;;;;;;5.55;2.95;;;;;;;-145.68;43.65;72904.19;10456047;28;20662;-75
2023/09/15 13:49:41;;;;;;;6.35;2.97;;;;;;;-145.68;43.89;72928.19;10450104;28;20715;-75
2023/09/15 13:54:41;;;;;;;3.10;2.60;;;;;;;-145.68;43.38;72910.19;10450716;28;20217;-76
2023/09/15 13:59:42;;;;;;;4.97;2.53;;;;;;;-145.68;43.21;72882.22;10452821;28;20724;-75
2023/09/15 14:04:47;;;;;;;6.40;2.38;;;;;;;-145.68;41.89;72738.31;10455276;28;20252;-76
2023/09/15 14:09:47;;;;;;;3.75;2.35;;;;;;;-145.68;42.01;72864.22;10445265;28;20188;-76
2023/09/15 14:14:47;;;;;;;4.63;2.80;;;;;;;-145.68;41.95;72732.34;10430333;28;20207;-76
2023/09/15 14:19:48;;;;;;;4.30;2.30;;;;;;;-145.68;41.05;72744.31;10450426;28;20195;-76
2023/09/15 14:24:50;;;;;;;4.25;2.30;;;;;;;-145.68;39.18;72614.44;10447175;28;20192;-77
2023/09/15 14:29:50;;;;;;;3.63;2.47;;;;;;;-145.68;39.40;72606.44;10457455;28;20188;-76
2023/09/15 14:34:50;;;;;;;3.30;2.30;;;;;;;-145.68;38.88;72452.56;10448261;28;20633;-76
2023/09/15 14:39:51;;;;;;;2.30;2.10;;;;;;;-145.68;38.83;72492.53;10448213;28;20276;-76
2023/09/15 14:44:51;;;;;;;5.05;2.22;;;;;;;-145.68;37.58;72324.69;10429333;28;20582;-75
2023/09/15 14:49:51;;;;;;;2.70;2.25;;;;;;;-145.68;37.04;72440.56;10436778;28;20282;-75
2023/09/15 14:54:52;;;;;;;2.75;1.75;;;;;;;-145.68;37.32;72498.53;10430288;28;20789;-75
2023/09/15 14:59:52;;;;;;;4.28;2.53;;;;;;;-145.68;37.81;72496.53;10453940;28;20196;-75
2023/09/15 15:04:53;;;;;;;5.53;2.35;;;;;;;-145.68;36.64;72432.59;10447389;28;20232;-75
2023/09/15 15:09:53;;;;;;;6.13;2.25;;;;;;;-145.68;38.07;72568.47;10473834;28;20207;-75
2023/09/15 15:14:53;;;;;;;3.17;2.22;;;;;;;-145.68;38.78;72592.44;10448790;28;20191;-75
2023/09/15 15:19:54;;;;;;;4.55;2.38;;;;;;;-145.68;35.73;72242.75;10447825;28;20203;-75
2023/09/15 15:24:54;;;;;;;2.60;2.25;;;;;;;-145.68;35.28;72232.75;10464906;28;20215;-75
2023/09/15 15:36:23;;;;;;;3.50;2.53;;;;;;;-145.68;37.32;72452.56;10411609;28;20652;-75
2023/09/15 15:41:24;;;;;;;4.95;2.25;;;;;;;-145.68;37.10;72444.56;10469563;28;20190;-75
2023/09/15 15:46:24;;;;;;;14.45;2.60;;;;;;;-145.68;36.80;72474.53;10465512;28;20227;-75
2023/09/15 15:51:27;;;;;;;4.60;2.38;;;;;;;-145.68;36.59;72390.63;10461061;28;20203;-76
2023/09/15 15:56:27;;;;;;;3.33;2.25;;;;;;;-145.68;35.72;72306.69;10460863;28;20195;-76
2023/09/15 16:01:27;;;;;;;5.32;2.72;;;;;;;-145.68;37.56;72514.50;10452252;28;20206;-76
2023/09/15 16:06:29;;;;;;;2.42;2.22;;;;;;;-145.68;39.46;72662.38;10453870;28;20212;-75
2023/09/15 16:11:29;;;;;;;3.05;2.10;;;;;;;-145.68;38.83;72584.44;10447925;28;20196;-76
2023/09/15 16:16:29;;;;;;;2.40;2.20;;;;;;;-145.68;41.32;72848.25;10446901;28;20196;-75
2023/09/15 16:21:33;;;;;;;4.03;2.17;;;;;;;-145.68;43.33;72972.16;10447261;28;20277;-75
2023/09/15 16:26:34;;;;;;;5.13;2.63;;;;;;;-145.68;44.52;73002.13;10450790;28;20230;-75
2023/09/15 16:31:35;;;;;;;2.72;2.33;;;;;;;-145.68;46.10;73104.06;10444343;28;20298;-75
2023/09/15 16:36:35;;;;;;;5.20;2.17;;;;;;;-145.68;45.93;73110.06;10446320;28;20202;-76
2023/09/15 16:41:35;;;;;;;4.22;2.60;;;;;;;-145.68;46.68;73132.03;10457185;28;20520;-75
2023/09/15 16:46:36;;;;;;;4.30;2.30;;;;;;;-145.68;47.56;73162.00;10443300;28;20234;-75
2023/09/15 16:51:36;;;;;;;6.97;2.55;;;;;;;-145.68;49.41;73203.97;10443499;28;20200;-75
2023/09/15 16:56:37;;;;;;;6.88;4.40;;;;;;;-145.68;51.09;73243.97;10445546;28;20199;-76
2023/09/15 17:01:37;;;;;;;4.88;3.10;;;;;;;-145.68;52.66;73303.91;10445474;28;20674;-75
2023/09/15 17:06:37;;;;;;;7.00;2.90;;;;;;;-145.68;56.04;73413.84;10427667;28;20563;-75
2023/09/15 17:11:38;;;;;;;3.70;2.35;;;;;;;-145.68;59.20;73525.78;10444319;28;20187;-75
2023/09/15 17:16:38;;;;;;;7.03;2.90;;;;;;;-145.68;62.08;73575.75;10445180;28;20203;-75
2023/09/15 17:21:39;;;;;;;4.18;2.50;;;;;;;-145.68;63.49;73583.75;10450758;28;20199;-75
2023/09/15 17:26:46;;;;;;;6.18;3.55;;;;;;;-145.68;64.73;73593.75;10445054;28;20227;-75
2023/09/15 17:31:47;;;;;;;14.20;3.65;;;;;;;-145.68;66.82;73635.72;10447814;28;20214;-75
2023/09/15 17:36:47;;;;;;;6.45;3.85;;;;;;;-145.68;69.77;73681.69;10447566;28;20497;-75
2023/09/15 17:41:48;;;;;;;4.22;2.97;;;;;;;-145.68;73.13;73703.69;10450310;28;20192;-75
2023/09/15 17:46:48;;;;;;;5.03;3.20;;;;;;;-145.68;77.49;73737.66;10443431;28;20235;-74
2023/09/15 17:51:48;;;;;;;4.70;3.00;;;;;;;-145.68;81.00;73751.66;10443515;28;20195;-75
2023/09/15 17:56:50;;;;;;;7.43;3.75;;;;;;;-145.68;83.48;73765.66;10447194;28;20183;-75
2023/09/15 18:01:50;;;;;;;5.70;3.67;;;;;;;-145.68;86.58;73791.63;10446495;28;20758;-75
2023/09/15 18:06:51;;;;;;;4.63;3.30;;;;;;;-145.68;89.51;73813.63;10448762;28;20231;-75
2023/09/15 18:11:51;;;;;;;4.18;3.50;;;;;;;-145.68;92.17;73843.59;10451281;28;20210;-75
2023/09/15 18:16:52;;;;;;;4.47;3.75;;;;;;;-145.68;94.18;73881.59;10437356;28;20203;-75
2023/09/15 18:21:54;;;;;;;4.68;3.92;;;;;;;-145.68;96.58;73887.56;10450873;28;20282;-74
2023/09/15 18:26:55;;;;;;;4.22;3.60;;;;;;;-145.68;99.74;73917.56;10449295;28;20220;-74
2023/09/15 18:31:56;;;;;;;3.60;3.25;;;;;;;-145.68;100.00;73919.56;10450439;28;20196;-75
2023/09/15 18:36:58;;;;;;;6.30;3.95;;;;;;;-145.68;100.00;73947.56;10452253;28;20655;-75
2023/09/15 18:41:58;;;;;;;3.80;3.17;;;;;;;-145.68;100.00;73957.53;10449747;28;20729;-75
2023/09/15 18:46:59;;;;;;;6.35;3.67;;;;;;;-145.68;100.00;73971.53;10448781;28;20293;-74
2023/09/15 18:51:59;;;;;;;5.00;3.33;;;;;;;-145.68;100.00;73979.53;10449769;28;20596;-74
2023/09/15 18:57:00;;;;;;;6.47;3.83;;;;;;;-145.68;100.00;74007.53;10453954;28;20651;-74
2023/09/15 19:02:01;;;;;;;6.88;3.53;;;;;;;-145.68;100.00;74011.53;10448778;28;20200;-74
2023/09/15 19:07:01;;;;;;;7.20;3.97;;;;;;;-145.68;100.00;74015.50;10448261;28;20215;-74
2023/09/15 19:12:01;;;;;;;6.55;3.70;;;;;;;-145.68;100.00;74029.50;10450055;28;20651;-74
2023/09/15 19:17:02;;;;;;;5.25;3.67;;;;;;;-145.68;100.00;74041.50;10455551;28;20562;-74
2023/09/15 19:22:02;;;;;;;8.48;4.15;;;;;;;-145.68;100.00;74055.50;10448445;28;20321;-75
2023/09/15 19:27:03;;;;;;;4.20;3.80;;;;;;;-145.68;100.00;74069.50;10447555;28;20297;-74
2023/09/15 19:32:03;;;;;;;6.60;4.05;;;;;;;-145.68;100.00;74077.50;10452797;28;20202;-75
2023/09/15 19:37:04;;;;;;;6.68;4.07;;;;;;;-145.68;100.00;74083.47;10447550;28;20630;-74
2023/09/15 19:42:05;;;;;;;9.20;4.60;;;;;;;-145.68;100.00;74097.47;10452772;28;20188;-74
2023/09/15 19:47:07;;;;;;;4.25;3.40;;;;;;;-145.68;100.00;74109.47;10423171;28;20303;-75
2023/09/15 19:52:09;;;;;;;6.07;4.17;;;;;;;-145.68;100.00;74121.47;10410025;28;20207;-74
2023/09/15 19:57:09;;;;;;;5.82;3.58;;;;;;;-145.68;100.00;74127.47;10407386;28;20196;-74
2023/09/15 20:02:11;;;;;;;5.22;3.28;;;;;;;-145.68;100.00;74131.47;10408191;28;20249;-74
2023/09/15 20:07:11;;;;;;;5.27;3.90;;;;;;;-145.68;100.00;74155.44;10404422;28;20259;-74
2023/09/15 20:12:12;;;;;;;6.45;3.67;;;;;;;-145.68;100.00;74149.47;10408478;28;20563;-75
2023/09/15 20:17:12;;;;;;;6.88;3.90;;;;;;;-145.68;100.00;74159.44;10402878;28;20189;-74
2023/09/15 20:22:12;;;;;;;5.33;3.83;;;;;;;-145.68;100.00;74159.44;10405485;28;20238;-74
2023/09/15 20:27:13;;;;;;;4.45;3.85;;;;;;;-145.68;100.00;74171.44;10407031;28;20244;-74
2023/09/15 20:32:13;;;;;;;7.35;4.00;;;;;;;-145.68;100.00;74175.44;10403790;28;20192;-74
2023/09/15 20:37:14;;;;;;;7.22;3.70;;;;;;;-145.68;100.00;74201.44;10403979;28;20193;-73
2023/09/15 20:42:15;;;;;;;5.93;3.60;;;;;;;-145.68;100.00;74201.44;10410314;28;20200;-73
2023/09/15 20:47:15;;;;;;;6.87;3.53;;;;;;;-145.68;100.00;74191.44;10416221;28;20233;-74
2023/09/15 20:52:16;;;;;;;6.07;3.80;;;;;;;-145.68;100.00;74199.44;10429290;28;20544;-74
2023/09/15 20:57:16;;;;;;;4.78;3.72;;;;;;;-145.68;100.00;74207.44;10434588;28;20246;-73
2023/09/15 21:02:16;;;;;;;4.65;3.63;;;;;;;-145.68;100.00;74225.41;10446465;28;20279;-73
2023/09/15 21:07:17;;;;;;;6.40;3.50;;;;;;;-145.68;100.00;74231.41;10446621;28;20217;-74
2023/09/15 21:12:17;;;;;;;4.90;3.80;;;;;;;-145.68;100.00;74243.41;10448264;28;20194;-73
2023/09/15 21:17:18;;;;;;;4.68;3.88;;;;;;;-145.68;100.00;74251.41;10444111;28;20447;-73
2023/09/15 21:22:18;;;;;;;4.37;3.60;;;;;;;-145.68;100.00;74257.41;10445710;28;20279;-74
2023/09/15 21:27:18;;;;;;;5.20;3.90;;;;;;;-145.68;100.00;74259.41;10443777;28;20285;-75
2023/09/15 21:32:19;;;;;;;8.23;5.00;;;;;;;-145.68;100.00;74255.41;10449054;28;20189;-74
2023/09/15 21:37:19;;;;;;;5.53;4.73;;;;;;;-145.68;100.00;74255.41;10444343;28;20222;-74
2023/09/15 21:42:19;;;;;;;7.37;4.70;;;;;;;-145.68;100.00;74271.41;10435210;28;20644;-74
2023/09/15 21:47:20;;;;;;;4.40;4.00;;;;;;;-145.68;100.00;74291.41;10416457;28;20777;-74
2023/09/15 21:52:20;;;;;;;5.50;4.27;;;;;;;-145.68;100.00;74293.41;10461129;28;20274;-75
2023/09/15 21:57:20;;;;;;;5.27;4.53;;;;;;;-145.68;100.00;74285.41;10451617;28;20283;-74
2023/09/15 22:02:21;;;;;;;6.13;4.30;;;;;;;-145.68;100.00;74273.41;10434336;28;20192;-74
2023/09/15 22:07:21;;;;;;;9.47;4.77;;;;;;;-145.68;100.00;74259.41;10450249;28;20281;-74
2023/09/15 22:12:22;;;;;;;4.97;4.27;;;;;;;-145.68;100.00;74267.41;10454002;28;20655;-74
2023/09/15 22:17:22;;;;;;;6.33;4.23;;;;;;;-145.68;100.00;74255.41;10451207;28;20557;-74
2023/09/15 22:22:23;;;;;;;4.57;4.10;;;;;;;-145.68;100.00;74257.41;10433113;28;20188;-75
2023/09/15 22:27:24;;;;;;;5.67;4.20;;;;;;;-145.68;100.00;74251.41;10433017;28;20230;-74
2023/09/15 22:32:25;;;;;;;5.00;4.40;;;;;;;-145.68;100.00;74263.41;10434952;28;20207;-74
2023/09/15 22:37:26;;;;;;;6.60;5.30;;;;;;;-145.68;100.00;74263.41;10432268;28;20222;-74
2023/09/15 22:42:26;;;;;;;5.27;4.63;;;;;;;-145.68;100.00;74251.41;10457486;28;20203;-74
2023/09/15 22:47:26;;;;;;;6.63;5.10;;;;;;;-145.68;100.00;74265.41;10452191;28;20231;-75
2023/09/15 22:52:27;;;;;;;6.23;4.73;;;;;;;-145.68;100.00;74265.41;10450201;28;20192;-74